Manor, Delaware
Current Conditions -  °F | °C
As of 8:51 PM on Sunday 21 Dec 2014 (Local Time) from KILG Reporting Station
Clear Clear  
Wind Chill: 30°   Ceiling: Unl
Heat Index: 30°   Visibility: 8mi
Dew Point: 22°   Wind: 0mph
Humidity: 72%   Direction: NA
Pressure: 30.35"   Gusts: NA
Location:  39.6483°N, 75.6041°W
Report Text: KILG 220151Z 00000KT 8SM CLR M01/M06 A3035 RMK AO2 SLP278 T10111056
Loading
Personal Weather Stations






























Interactive Weather Map New forecast layout! Learn more

10-Day Weather Forecast

Advertisements
Track Severe Weather on mobile